Time;durP1;ratioP1;P1;durP2;ratioP2;P2;SDS_P1;SDS_P2;PMS_P1;PMS_P2;Temp;Humidity;BMP_temperature;BMP_pressure;BME280_temperature;BME280_humidity;BME280_pressure;Samples;Min_cycle;Max_cycle;Signal;HPM_P1;HPM_P2
2023/05/25 10:26:28;;;;;;;4.28;1.38;;;;;;;24.05;54.67;99976.31;5091560;27;20401;-66
2023/05/25 10:29:03;;;;;;;0.57;0.57;;;;;;;24.14;55.33;99966.28;5090772;28;20040;-64
2023/05/25 10:31:36;;;;;;;1.50;0.90;;;;;;;24.34;54.95;99960.03;5090904;28;20092;-64
2023/05/25 10:34:05;;;;;;;1.55;0.80;;;;;;;24.60;54.73;99965.56;5073274;28;20131;-66
2023/05/25 10:36:37;;;;;;;1.52;1.00;;;;;;;24.77;53.94;99964.69;5090734;28;20048;-65
2023/05/25 10:39:08;;;;;;;0.75;0.75;;;;;;;24.83;53.43;99972.22;5090790;28;20071;-66
2023/05/25 10:41:38;;;;;;;1.25;0.90;;;;;;;24.91;53.46;99962.16;5090815;28;20086;-65
2023/05/25 10:44:07;;;;;;;0.52;0.52;;;;;;;25.12;55.14;99958.38;5091150;28;20055;-64
2023/05/25 10:46:36;;;;;;;;;;;;;;;25.22;54.69;99958.69;5091130;28;20529;-66
2023/05/25 10:49:05;;;;;;;0.57;0.53;;;;;;;25.07;53.75;99955.19;5090507;28;19927;-64
2023/05/25 10:51:42;;;;;;;1.05;1.00;;;;;;;24.93;53.55;99942.03;5090831;28;20078;-64
2023/05/25 10:54:14;;;;;;;4.30;1.05;;;;;;;25.11;54.15;99945.41;5072648;28;20090;-64
2023/05/25 10:57:09;;;;;;;0.60;0.60;;;;;;;25.21;53.84;99949.19;5090984;28;20052;-64
2023/05/25 10:59:44;;;;;;;0.70;0.70;;;;;;;25.33;53.22;99939.81;5090661;28;20086;-64
2023/05/25 11:02:13;;;;;;;0.90;0.85;;;;;;;25.41;53.17;99937.59;5090276;28;20052;-64
2023/05/25 11:04:43;;;;;;;2.13;1.40;;;;;;;25.44;52.54;99929.56;5090171;28;20037;-66
2023/05/25 11:07:18;;;;;;;1.25;1.13;;;;;;;25.53;53.24;99931.69;5072078;28;20095;-63
2023/05/25 11:09:58;;;;;;;1.58;1.30;;;;;;;25.43;52.68;99930.50;5090403;28;20047;-63
2023/05/25 11:12:27;;;;;;;0.77;0.73;;;;;;;25.18;52.16;99926.69;5090446;28;20048;-66
2023/05/25 11:15:17;;;;;;;0.68;0.68;;;;;;;25.19;52.42;99932.75;5090107;28;20036;-64
2023/05/25 11:18:01;;;;;;;0.70;0.70;;;;;;;25.17;52.23;99930.22;5090417;28;20057;-63
2023/05/25 11:20:30;;;;;;;1.38;1.27;;;;;;;25.25;51.99;99927.16;5088383;28;20097;-64
2023/05/25 11:22:59;;;;;;;0.70;0.70;;;;;;;24.86;52.57;99922.41;5090890;28;20040;-66
2023/05/25 11:25:40;;;;;;;0.50;0.50;;;;;;;24.98;53.62;99932.16;5089790;28;20048;-65
2023/05/25 11:28:11;;;;;;;21.77;2.50;;;;;;;25.34;53.33;99910.13;5089892;28;20039;-64
2023/05/25 11:30:42;;;;;;;0.52;0.52;;;;;;;25.53;53.39;99926.47;5089844;28;20048;-67
2023/05/25 11:33:12;;;;;;;0.70;0.63;;;;;;;25.13;52.13;99923.47;5090102;28;20043;-64
2023/05/25 11:35:43;;;;;;;0.70;0.70;;;;;;;25.07;51.91;99921.22;5087925;28;20478;-63
2023/05/25 11:38:14;;;;;;;2.30;1.55;;;;;;;25.21;52.19;99910.84;5076360;28;20033;-66
2023/05/25 11:40:43;;;;;;;0.73;0.63;;;;;;;25.24;51.70;99913.25;5076413;28;20040;-64
2023/05/25 11:43:13;;;;;;;1.08;0.82;;;;;;;25.33;52.01;99903.22;5058344;28;20048;-66
2023/05/25 11:45:44;;;;;;;1.00;0.90;;;;;;;25.19;51.90;99907.44;5075972;28;20344;-65
2023/05/25 11:48:14;;;;;;;0.73;0.73;;;;;;;25.13;51.13;99913.03;5076079;28;20056;-66
2023/05/25 11:50:44;;;;;;;0.95;0.93;;;;;;;25.13;50.92;99913.03;5075971;28;20127;-65
2023/05/25 11:53:13;;;;;;;;;;;;;;;24.99;50.85;99905.13;5076417;28;20094;-64
2023/05/25 11:55:50;;;;;;;2.15;1.42;;;;;;;25.05;51.37;99904.78;5075884;28;19920;-64
2023/05/25 11:58:34;;;;;;;1.27;1.05;;;;;;;25.14;51.32;99899.06;5075902;28;20045;-65
2023/05/25 12:01:18;;;;;;;0.80;0.65;;;;;;;25.16;51.00;99897.19;5057977;28;20041;-66
2023/05/25 12:03:48;;;;;;;0.80;0.80;;;;;;;25.21;50.78;99889.94;5091382;28;20056;-65
2023/05/25 12:06:28;;;;;;;1.55;0.80;;;;;;;24.98;50.73;99893.00;5075646;28;20080;-64
2023/05/25 12:08:58;;;;;;;1.33;1.20;;;;;;;24.98;50.86;99886.94;5075617;28;20071;-66
2023/05/25 12:11:29;;;;;;;1.67;1.02;;;;;;;24.84;51.16;99892.91;5057680;28;20502;-65
2023/05/25 12:13:58;;;;;;;1.42;0.75;;;;;;;24.87;50.71;99890.16;5075881;28;20101;-67
2023/05/25 12:16:29;;;;;;;0.95;0.80;;;;;;;24.87;51.16;99890.16;5075753;28;20072;-64
2023/05/25 12:18:59;;;;;;;0.75;0.70;;;;;;;24.99;51.33;99886.84;5075765;28;20414;-64
2023/05/25 12:21:28;;;;;;;0.77;0.77;;;;;;;25.19;51.10;99881.31;5075622;28;20049;-65
2023/05/25 12:23:57;;;;;;;0.50;0.50;;;;;;;25.65;52.58;99884.75;5075187;28;20410;-64
2023/05/25 12:26:26;;;;;;;0.80;0.75;;;;;;;25.84;52.10;99871.44;5075589;28;20036;-64
2023/05/25 12:28:59;;;;;;;0.50;0.50;;;;;;;26.16;53.28;99878.19;5075512;28;20394;-65
2023/05/25 12:31:31;;;;;;;1.80;1.40;;;;;;;26.27;52.43;99878.38;5075233;28;20097;-65
2023/05/25 12:34:08;;;;;;;0.50;0.50;;;;;;;26.27;53.00;99878.38;5075048;28;20161;-64
2023/05/25 12:36:43;;;;;;;1.48;1.13;;;;;;;26.35;52.45;99876.09;5075424;28;20070;-64
2023/05/25 12:39:13;;;;;;;0.60;0.60;;;;;;;26.28;51.21;99869.56;5075006;28;20055;-66
2023/05/25 12:41:48;;;;;;;0.90;0.88;;;;;;;26.18;50.52;99878.91;5074982;28;20048;-65
2023/05/25 12:44:22;;;;;;;2.60;1.50;;;;;;;26.09;49.82;99874.22;5075291;28;20472;-65
2023/05/25 12:46:54;;;;;;;0.77;0.68;;;;;;;25.97;49.31;99877.59;5056943;28;20045;-65
2023/05/25 12:49:29;;;;;;;1.23;0.98;;;;;;;26.01;49.81;99868.59;5073940;28;20044;-64
2023/05/25 12:51:59;;;;;;;0.65;0.65;;;;;;;26.12;50.02;99874.06;5074754;28;20049;-64
2023/05/25 12:54:36;;;;;;;0.75;0.75;;;;;;;26.25;50.33;99874.97;5075346;28;20040;-64
2023/05/25 12:57:05;;;;;;;0.73;0.73;;;;;;;26.28;50.13;99869.56;5074784;28;20509;-64
2023/05/25 12:59:36;;;;;;;1.25;1.15;;;;;;;26.26;50.88;99866.22;5074625;28;20112;-64
2023/05/25 13:02:07;;;;;;;1.70;1.00;;;;;;;25.81;49.69;99851.53;5074617;28;20128;-65
2023/05/25 13:04:37;;;;;;;2.78;1.23;;;;;;;25.82;50.63;99850.56;5074805;28;20054;-64
2023/05/25 13:07:09;;;;;;;0.60;0.60;;;;;;;26.03;51.94;99853.69;5074453;28;20044;-64
2023/05/25 13:09:38;;;;;;;1.48;1.08;;;;;;;25.81;50.82;99845.44;5074467;28;20044;-65
2023/05/25 13:12:08;;;;;;;0.70;0.70;;;;;;;25.51;50.17;99839.41;5056721;28;20045;-66
2023/05/25 13:14:37;;;;;;;1.38;1.27;;;;;;;25.52;50.51;99851.56;5074974;28;20036;-64
2023/05/25 13:17:07;;;;;;;0.63;0.63;;;;;;;25.64;50.24;99846.47;5074492;28;20410;-64
2023/05/25 13:19:36;;;;;;;1.83;1.10;;;;;;;25.63;49.82;99851.75;5074222;28;20044;-65
2023/05/25 13:22:06;;;;;;;1.83;1.15;;;;;;;25.87;51.05;99843.28;5074115;28;20045;-65
2023/05/25 13:24:35;;;;;;;1.60;1.45;;;;;;;25.99;50.32;99844.31;5074205;28;20056;-65
2023/05/25 13:27:04;;;;;;;1.17;0.82;;;;;;;25.99;49.78;99838.28;5074161;28;20132;-64
2023/05/25 13:29:33;;;;;;;2.65;1.60;;;;;;;25.81;49.23;99840.22;5074327;28;20067;-65
2023/05/25 13:32:01;;;;;;;1.17;0.68;;;;;;;25.35;49.61;99833.38;5073887;28;20059;-65
2023/05/25 13:34:32;;;;;;;1.08;0.98;;;;;;;25.12;50.21;99838.19;5073901;28;20513;-64
2023/05/25 13:37:01;;;;;;;2.33;1.13;;;;;;;25.30;50.91;99831.91;5074176;28;20188;-64
2023/05/25 13:39:30;;;;;;;0.93;0.75;;;;;;;25.29;50.30;99819.75;5073793;28;20067;-64
2023/05/25 13:41:58;;;;;;;0.57;0.57;;;;;;;25.44;50.33;99827.63;5073833;28;20525;-64
2023/05/25 13:44:27;;;;;;;0.50;0.50;;;;;;;25.65;51.44;99815.94;5073766;28;20045;-64
2023/05/25 13:46:56;;;;;;;1.05;0.90;;;;;;;25.56;50.32;99795.53;5073619;28;20041;-64
2023/05/25 13:49:25;;;;;;;0.73;0.55;;;;;;;25.52;50.43;99807.13;5073768;28;20118;-63
2023/05/25 13:51:56;;;;;;;0.95;0.80;;;;;;;25.34;50.29;99805.59;5074041;28;20097;-64
2023/05/25 13:54:25;;;;;;;1.48;1.38;;;;;;;25.40;50.60;99800.84;5074340;28;20482;-65
2023/05/25 13:56:56;;;;;;;0.52;0.52;;;;;;;25.38;50.68;99804.47;5073849;28;20051;-65
2023/05/25 13:59:25;;;;;;;1.05;0.95;;;;;;;25.52;50.74;99804.50;5073462;28;20045;-63
2023/05/25 14:01:55;;;;;;;;;;;;;;;25.76;52.24;99808.28;5073999;28;20032;-64
2023/05/25 14:04:24;;;;;;;0.95;0.82;;;;;;;25.87;51.58;99801.44;5073548;28;19921;-65
2023/05/25 14:06:54;;;;;;;1.05;0.98;;;;;;;25.92;51.66;99803.78;5073763;28;20044;-64
2023/05/25 14:09:25;;;;;;;0.52;0.52;;;;;;;25.84;51.80;99795.56;5073483;28;20064;-64
2023/05/25 14:11:53;;;;;;;1.92;0.80;;;;;;;25.80;52.13;99799.28;5073822;28;20564;-64
2023/05/25 14:14:22;;;;;;;2.10;1.50;;;;;;;25.57;51.88;99802.47;5073430;28;20162;-66
2023/05/25 14:17:00;;;;;;;3.67;1.55;;;;;;;25.54;52.80;99794.81;5073742;28;20479;-63
2023/05/25 14:19:29;;;;;;;0.75;0.75;;;;;;;25.66;53.33;99791.44;5073389;28;20072;-64
2023/05/25 14:21:57;;;;;;;2.67;1.10;;;;;;;25.72;52.71;99785.88;5073633;28;20043;-64
2023/05/25 14:24:42;;;;;;;1.73;1.38;;;;;;;25.74;52.13;99784.00;5073184;28;20056;-66
2023/05/25 14:27:11;;;;;;;0.90;0.85;;;;;;;25.52;51.29;99784.44;5073265;28;20094;-63
2023/05/25 14:29:39;;;;;;;1.50;1.40;;;;;;;25.43;50.96;99784.97;5073672;28;20389;-63
2023/05/25 14:32:08;;;;;;;1.02;0.95;;;;;;;25.33;50.35;99785.59;5073910;28;20094;-64
2023/05/25 14:34:37;;;;;;;1.35;1.23;;;;;;;25.28;50.64;99778.03;5069327;28;20037;-64
2023/05/25 14:37:06;;;;;;;0.50;0.50;;;;;;;25.17;50.93;99778.66;5073483;28;20374;-64
2023/05/25 14:39:36;;;;;;;0.82;0.80;;;;;;;25.20;50.74;99781.09;5073146;28;20049;-64
2023/05/25 14:42:07;;;;;;;1.02;0.93;;;;;;;25.19;50.36;99787.25;5073453;28;20060;-67
2023/05/25 14:44:35;;;;;;;1.33;1.10;;;;;;;25.17;50.19;99783.88;5073152;28;20045;-65
2023/05/25 14:47:05;;;;;;;0.80;0.80;;;;;;;25.15;50.39;99780.53;5073032;28;20040;-66
2023/05/25 14:49:34;;;;;;;2.58;1.23;;;;;;;25.11;50.54;99779.03;5073043;28;20055;-63
2023/05/25 14:52:04;;;;;;;1.00;0.70;;;;;;;25.11;50.63;99781.66;5073152;28;20051;-64
2023/05/25 14:54:33;;;;;;;1.55;1.38;;;;;;;25.07;50.11;99774.09;5055024;28;20078;-63
2023/05/25 14:57:02;;;;;;;2.08;1.30;;;;;;;24.93;50.09;99772.25;5072987;28;20157;-65
2023/05/25 14:59:32;;;;;;;0.93;0.82;;;;;;;24.96;50.42;99785.13;5073103;28;20564;-63
2023/05/25 15:02:01;;;;;;;1.33;1.23;;;;;;;25.09;50.37;99774.81;5073308;28;20102;-63
2023/05/25 15:04:30;;;;;;;0.80;0.80;;;;;;;25.28;50.81;99776.28;5073017;28;20072;-65
2023/05/25 15:06:59;;;;;;;1.25;0.93;;;;;;;25.30;50.75;99779.63;5073393;28;20086;-65
2023/05/25 15:09:28;;;;;;;;;;;;;;;25.26;50.13;99775.53;5073619;28;20037;-63
2023/05/25 15:11:57;;;;;;;1.87;1.60;;;;;;;24.98;49.82;99767.59;5074729;28;20397;-65
2023/05/25 15:14:26;;;;;;;1.35;1.15;;;;;;;24.90;49.99;99769.00;5076954;28;20056;-65
2023/05/25 15:16:56;;;;;;;1.25;1.00;;;;;;;24.85;50.62;99766.66;5076560;28;20045;-64
2023/05/25 15:19:25;;;;;;;0.60;0.60;;;;;;;24.55;50.79;99721.38;5077019;28;20376;-65
2023/05/25 15:21:56;;;;;;;0.60;0.60;;;;;;;24.65;50.76;99769.50;5076815;28;20056;-64
2023/05/25 15:24:25;;;;;;;0.50;0.50;;;;;;;24.45;50.75;99770.63;5076808;28;20045;-65
2023/05/25 15:26:54;;;;;;;0.40;0.40;;;;;;;24.34;50.93;99770.41;5076277;28;20041;-66
2023/05/25 15:29:23;;;;;;;2.28;1.30;;;;;;;24.23;51.21;99777.16;5076391;28;20068;-66
2023/05/25 15:31:52;;;;;;;0.60;0.60;;;;;;;24.19;51.20;99780.81;5076238;28;20132;-65
2023/05/25 15:34:23;;;;;;;2.05;1.45;;;;;;;24.22;51.94;99780.66;5058862;28;20047;-65
2023/05/25 15:36:52;;;;;;;3.05;1.23;;;;;;;24.21;52.35;99774.59;5058585;28;20080;-64
2023/05/25 15:39:20;;;;;;;1.80;1.60;;;;;;;24.16;52.64;99775.81;5076497;28;20053;-64
2023/05/25 15:41:49;;;;;;;1.65;0.77;;;;;;;24.17;53.07;99767.03;5076474;28;20039;-66
2023/05/25 15:44:18;;;;;;;1.52;1.13;;;;;;;24.12;52.54;99774.25;5076613;28;20490;-65
2023/05/25 15:46:47;;;;;;;2.03;1.20;;;;;;;24.11;52.47;99777.81;5076084;28;20043;-64
2023/05/25 15:49:16;;;;;;;2.13;1.20;;;;;;;24.11;52.98;99767.38;5075956;28;20124;-64
2023/05/25 15:51:46;;;;;;;1.52;1.10;;;;;;;24.12;53.18;99771.66;5075997;28;20037;-64
2023/05/25 15:54:16;;;;;;;0.70;0.70;;;;;;;24.11;53.34;99767.38;5076238;28;20403;-65
2023/05/25 15:56:45;;;;;;;0.80;0.70;;;;;;;24.02;53.37;99765.25;5076154;28;20398;-65
2023/05/25 15:59:14;;;;;;;1.85;1.45;;;;;;;24.04;53.47;99766.00;5075780;28;20127;-65
2023/05/25 16:01:42;;;;;;;1.85;0.95;;;;;;;24.05;53.47;99767.66;5075798;28;20051;-64
2023/05/25 16:04:12;;;;;;;1.17;1.00;;;;;;;24.13;53.62;99770.75;5075764;28;20063;-65
2023/05/25 16:06:41;;;;;;;1.17;1.10;;;;;;;24.11;54.05;99772.59;5057760;28;20445;-67
2023/05/25 16:09:11;;;;;;;1.15;1.00;;;;;;;24.06;53.94;99769.38;5075572;28;20044;-66
2023/05/25 16:11:40;;;;;;;1.25;0.85;;;;;;;23.97;53.54;99774.13;5075939;28;20090;-66
2023/05/25 16:14:09;;;;;;;1.08;0.98;;;;;;;23.92;53.24;99775.34;5075517;28;20045;-64
2023/05/25 16:16:38;;;;;;;0.50;0.50;;;;;;;23.92;53.18;99773.53;5075585;28;20390;-64
2023/05/25 16:19:07;;;;;;;1.08;0.82;;;;;;;23.92;53.60;99772.72;5075714;28;20040;-65
2023/05/25 16:21:36;;;;;;;0.60;0.60;;;;;;;23.84;53.90;99774.88;5075457;28;20052;-66
2023/05/25 16:24:05;;;;;;;1.52;1.05;;;;;;;23.84;54.54;99780.94;5074976;28;20041;-64
2023/05/25 16:26:36;;;;;;;1.23;1.10;;;;;;;23.81;54.48;99775.91;5075734;28;20111;-63
2023/05/25 16:29:05;;;;;;;1.40;1.30;;;;;;;23.76;54.21;99788.31;5075223;28;20521;-63
2023/05/25 16:31:33;;;;;;;0.45;0.45;;;;;;;23.69;54.44;99781.75;5075741;28;20421;-65
2023/05/25 16:34:02;;;;;;;0.60;0.60;;;;;;;23.61;54.96;99783.09;5075168;28;20037;-65
2023/05/25 16:36:31;;;;;;;0.65;0.65;;;;;;;23.51;55.14;99785.34;5075406;28;20063;-65
2023/05/25 16:39:00;;;;;;;1.60;1.20;;;;;;;23.44;55.43;99786.56;5075406;28;20036;-64
2023/05/25 16:41:29;;;;;;;0.77;0.77;;;;;;;23.52;55.51;99789.59;5075583;28;20382;-64
2023/05/25 16:44:00;;;;;;;0.63;0.63;;;;;;;23.46;55.75;99792.53;5075276;28;20499;-63
2023/05/25 16:46:29;;;;;;;1.15;0.80;;;;;;;23.40;55.95;99795.44;5075120;28;20048;-65
2023/05/25 16:48:58;;;;;;;1.08;0.98;;;;;;;23.35;56.35;99792.22;5075521;28;20486;-63
2023/05/25 16:51:27;;;;;;;0.95;0.88;;;;;;;23.34;56.72;99790.53;5075149;28;20059;-63
2023/05/25 16:53:56;;;;;;;1.00;0.90;;;;;;;23.30;56.54;99789.84;5074750;28;20051;-63
2023/05/25 16:56:26;;;;;;;1.85;1.23;;;;;;;23.26;56.73;99792.69;5075073;28;20032;-64
2023/05/25 16:58:55;;;;;;;1.42;1.13;;;;;;;23.22;56.89;99788.56;5074733;28;20058;-63
2023/05/25 17:01:25;;;;;;;1.55;1.45;;;;;;;23.14;57.18;99782.88;5074932;28;20040;-64
2023/05/25 17:03:54;;;;;;;1.98;0.60;;;;;;;23.06;57.32;99785.84;5074574;28;20052;-64
2023/05/25 17:06:23;;;;;;;1.15;1.02;;;;;;;23.03;57.58;99787.78;5056701;28;20040;-65
2023/05/25 17:08:52;;;;;;;0.93;0.93;;;;;;;23.01;57.85;99789.63;5075193;28;20115;-65
2023/05/25 17:11:25;;;;;;;0.88;0.73;;;;;;;22.95;58.28;99793.38;5074597;28;20507;-63
2023/05/25 17:13:54;;;;;;;1.10;0.70;;;;;;;22.89;58.08;99792.84;5074361;28;20048;-65
2023/05/25 17:16:24;;;;;;;3.78;2.08;;;;;;;22.86;57.94;99787.78;5074290;28;20082;-64
2023/05/25 17:18:53;;;;;;;1.65;1.35;;;;;;;22.77;57.99;99788.22;5074291;28;20051;-63
2023/05/25 17:21:22;;;;;;;1.33;1.23;;;;;;;22.76;58.03;99781.31;5074602;28;20033;-63
2023/05/25 17:23:51;;;;;;;1.02;0.93;;;;;;;22.68;58.19;99785.16;5056780;28;20032;-64
2023/05/25 17:26:20;;;;;;;1.98;1.40;;;;;;;22.64;58.29;99785.38;5074109;28;20060;-63
2023/05/25 17:28:48;;;;;;;0.95;0.75;;;;;;;22.59;58.31;99779.50;5074048;28;20052;-64
2023/05/25 17:31:17;;;;;;;1.38;1.05;;;;;;;22.53;58.63;99780.63;5074116;28;20047;-63
2023/05/25 17:33:47;;;;;;;1.08;1.08;;;;;;;22.43;58.66;99779.41;5073636;28;20040;-63
2023/05/25 17:36:16;;;;;;;1.48;1.38;;;;;;;22.39;59.03;99793.47;5073968;28;20059;-63
2023/05/25 17:38:45;;;;;;;1.05;1.00;;;;;;;22.33;59.64;99783.34;5074286;28;20107;-63
2023/05/25 17:41:14;;;;;;;0.75;0.75;;;;;;;22.22;59.59;99770.00;5073884;28;20079;-64
2023/05/25 17:43:43;;;;;;;1.42;1.20;;;;;;;22.22;59.81;99775.19;5073864;28;20064;-63
2023/05/25 17:46:12;;;;;;;4.93;1.58;;;;;;;22.17;60.16;99776.34;5074084;28;20494;-63
2023/05/25 17:48:41;;;;;;;2.88;2.15;;;;;;;22.12;59.98;99779.16;5073763;28;20045;-64
2023/05/25 17:51:11;;;;;;;;;;;;;;;22.05;60.22;99782.13;5074429;28;20487;-63
2023/05/25 17:53:40;;;;;;;2.35;1.40;;;;;;;22.01;60.41;99781.38;5073781;28;19924;-63
2023/05/25 17:56:09;;;;;;;2.23;1.67;;;;;;;21.95;60.39;99786.88;5074063;28;20115;-65
2023/05/25 17:58:38;;;;;;;0.60;0.60;;;;;;;21.80;60.58;99779.75;5073918;28;20628;-63
2023/05/25 18:01:07;;;;;;;2.67;1.27;;;;;;;21.70;61.04;99770.66;5074565;28;20531;-66
2023/05/25 18:03:36;;;;;;;1.30;1.20;;;;;;;21.75;61.00;99792.09;5073867;28;20045;-62
2023/05/25 18:06:05;;;;;;;1.50;1.15;;;;;;;21.68;61.12;99788.94;5073632;28;20064;-62
2023/05/25 18:08:35;;;;;;;1.85;1.60;;;;;;;21.62;61.12;99783.16;5073464;28;20032;-62
2023/05/25 18:11:04;;;;;;;5.72;1.60;;;;;;;21.58;61.19;99776.41;5073810;28;20051;-62
2023/05/25 18:13:33;;;;;;;1.65;1.30;;;;;;;21.51;61.00;99780.19;5073467;28;20131;-64
2023/05/25 18:16:02;;;;;;;5.03;1.67;;;;;;;21.42;61.47;99778.84;5073537;28;20048;-64
2023/05/25 18:18:31;;;;;;;1.48;1.17;;;;;;;21.35;61.20;99775.63;5073944;28;20498;-64
2023/05/25 18:21:00;;;;;;;1.52;1.38;;;;;;;21.26;61.54;99781.22;5073348;28;20041;-64
2023/05/25 18:23:28;;;;;;;1.40;1.30;;;;;;;21.20;61.27;99781.50;5073469;28;20041;-64
2023/05/25 18:25:59;;;;;;;3.60;1.85;;;;;;;21.13;61.44;99782.69;5073185;28;20406;-66
2023/05/25 18:28:28;;;;;;;1.42;1.20;;;;;;;21.08;61.32;99782.03;5073247;28;20049;-64
2023/05/25 18:30:59;;;;;;;1.50;1.40;;;;;;;20.99;61.34;99779.78;5073385;28;20128;-65
2023/05/25 18:33:27;;;;;;;2.03;1.85;;;;;;;20.92;61.30;99786.13;5073254;28;20094;-64
2023/05/25 18:35:56;;;;;;;2.70;1.38;;;;;;;20.84;61.59;99783.00;5055704;28;20434;-65
2023/05/25 18:38:25;;;;;;;2.17;1.93;;;;;;;20.78;61.34;99788.41;5073532;28;20135;-63
2023/05/25 18:40:54;;;;;;;2.42;2.22;;;;;;;20.74;61.36;99802.44;5073546;28;20343;-63
2023/05/25 18:43:24;;;;;;;3.72;1.75;;;;;;;20.68;61.54;99797.50;5073269;28;20505;-66
2023/05/25 18:45:53;;;;;;;2.13;1.80;;;;;;;20.64;61.63;99798.50;5073247;28;20132;-63
2023/05/25 18:48:22;;;;;;;3.27;2.53;;;;;;;20.54;61.59;99812.75;5077239;28;20048;-64
2023/05/25 18:50:51;;;;;;;;;;;;;;;20.46;61.41;99801.84;5077577;28;20173;-64
2023/05/25 18:53:20;;;;;;;1.42;1.33;;;;;;;20.40;61.65;99812.44;5077178;28;19969;-65
2023/05/25 18:55:49;;;;;;;2.22;2.00;;;;;;;20.30;61.91;99811.13;5077099;28;20406;-63
2023/05/25 18:58:18;;;;;;;0.82;0.73;;;;;;;20.23;61.72;99814.84;5077000;28;20131;-64
2023/05/25 19:00:48;;;;;;;3.50;2.45;;;;;;;20.12;61.89;99822.97;5076914;28;20072;-63
2023/05/25 19:03:18;;;;;;;2.95;2.60;;;;;;;20.03;62.14;99824.16;5076927;28;20040;-64
2023/05/25 19:05:47;;;;;;;2.88;1.67;;;;;;;19.99;62.48;99832.94;5077234;28;20045;-65
2023/05/25 19:08:16;;;;;;;2.03;1.83;;;;;;;19.90;62.62;99842.81;5077140;28;20033;-63
2023/05/25 19:10:45;;;;;;;2.17;1.98;;;;;;;19.85;62.96;99849.88;5076683;28;20045;-62
2023/05/25 19:13:14;;;;;;;1.83;1.50;;;;;;;19.82;63.06;99850.84;5077009;28;20040;-63
2023/05/25 19:15:43;;;;;;;1.98;1.73;;;;;;;19.77;63.13;99850.16;5076718;28;20048;-63
2023/05/25 19:18:13;;;;;;;;;;;;;;;19.74;63.40;99857.22;5077042;28;20054;-64
2023/05/25 19:20:42;;;;;;;4.05;1.38;;;;;;;19.64;63.48;99855.84;5076898;28;19924;-64
2023/05/25 19:23:12;;;;;;;1.38;1.27;;;;;;;19.58;63.88;99856.06;5076852;28;20413;-65
2023/05/25 19:25:41;;;;;;;2.42;1.98;;;;;;;19.54;64.18;99859.63;5076349;28;20049;-65
2023/05/25 19:28:10;;;;;;;2.03;1.20;;;;;;;19.49;64.22;99864.97;5076821;28;20060;-65
2023/05/25 19:30:39;;;;;;;2.22;2.03;;;;;;;19.44;64.19;99864.28;5076430;28;20052;-64
2023/05/25 19:33:08;;;;;;;1.52;1.35;;;;;;;19.40;64.28;99870.47;5076796;28;20040;-64
2023/05/25 19:35:40;;;;;;;1.30;1.20;;;;;;;19.38;64.56;99869.66;5076238;28;20075;-64
2023/05/25 19:38:09;;;;;;;1.48;1.38;;;;;;;19.33;64.42;99877.56;5076415;28;20052;-63
2023/05/25 19:40:38;;;;;;;2.05;1.85;;;;;;;19.21;64.71;99872.78;5076829;28;20127;-64
2023/05/25 19:43:07;;;;;;;1.85;1.13;;;;;;;19.18;64.97;99877.19;5058603;28;20051;-63
2023/05/25 19:45:36;;;;;;;2.03;1.53;;;;;;;19.14;65.12;99875.63;5076152;28;20445;-63
2023/05/25 19:48:05;;;;;;;1.02;0.88;;;;;;;19.09;65.22;99882.69;5076385;28;20456;-63
2023/05/25 19:50:33;;;;;;;0.80;0.80;;;;;;;18.98;65.13;99887.38;5076197;28;20069;-63
2023/05/25 19:53:04;;;;;;;1.75;1.52;;;;;;;18.93;65.45;99884.06;5076965;28;20090;-63
2023/05/25 19:55:35;;;;;;;2.75;1.50;;;;;;;18.89;65.30;99880.72;5058128;28;20055;-63
2023/05/25 19:58:04;;;;;;;1.52;1.27;;;;;;;18.87;65.40;99877.34;5075722;28;20052;-64
2023/05/25 20:00:33;;;;;;;1.07;0.97;;;;;;;18.79;65.15;99888.84;5076246;28;20041;-64
2023/05/25 20:03:02;;;;;;;2.35;2.15;;;;;;;18.72;65.11;99889.00;5075843;28;20368;-64
2023/05/25 20:05:31;;;;;;;5.40;2.10;;;;;;;18.72;65.00;99893.31;5076073;28;20135;-64
2023/05/25 20:08:00;;;;;;;1.55;1.45;;;;;;;18.70;65.08;99895.13;5075792;28;20048;-63
2023/05/25 20:10:31;;;;;;;1.73;1.63;;;;;;;18.62;64.83;99905.69;5075959;28;20045;-63
2023/05/25 20:13:00;;;;;;;5.63;3.78;;;;;;;18.52;64.92;99906.00;5075705;28;20048;-64
2023/05/25 20:15:29;;;;;;;1.47;1.37;;;;;;;18.41;65.17;99901.09;5075544;28;20040;-63
2023/05/25 20:17:57;;;;;;;2.27;1.57;;;;;;;18.32;65.47;99903.97;5075816;28;20401;-64
2023/05/25 20:20:26;;;;;;;1.60;1.50;;;;;;;18.20;65.80;99900.88;5075477;28;20131;-64
2023/05/25 20:22:55;;;;;;;3.20;1.45;;;;;;;18.19;66.12;99910.34;5076343;28;20036;-64
2023/05/25 20:25:24;;;;;;;2.43;1.77;;;;;;;18.14;66.09;99909.63;5040605;28;20047;-65
2023/05/25 20:27:54;;;;;;;1.60;1.42;;;;;;;18.05;66.37;99909.91;5075342;28;20064;-62
2023/05/25 20:30:23;;;;;;;1.75;1.52;;;;;;;18.03;66.48;99904.78;5075320;28;20048;-63
2023/05/25 20:32:52;;;;;;;1.20;1.10;;;;;;;17.96;66.53;99910.16;5075369;28;20051;-63
2023/05/25 20:35:21;;;;;;;2.50;2.25;;;;;;;17.94;66.81;99907.63;5075212;28;20041;-63
2023/05/25 20:37:50;;;;;;;2.00;1.70;;;;;;;17.90;66.70;99912.91;5075129;28;20040;-64
2023/05/25 20:40:19;;;;;;;3.40;2.55;;;;;;;17.87;66.88;99913.84;5075077;28;20045;-65
2023/05/25 20:42:48;;;;;;;2.65;2.17;;;;;;;17.82;67.25;99922.59;5075028;28;20044;-64
2023/05/25 20:45:18;;;;;;;1.25;1.15;;;;;;;17.80;67.08;99914.03;5075002;28;20041;-64
2023/05/25 20:47:47;;;;;;;2.17;1.55;;;;;;;17.78;67.38;99928.72;5074984;28;20041;-65
2023/05/25 20:50:16;;;;;;;6.97;1.48;;;;;;;17.80;67.40;99926.94;5074942;28;20075;-64
2023/05/25 20:52:45;;;;;;;2.17;1.83;;;;;;;17.68;67.56;99916.94;5074933;28;20045;-63
2023/05/25 20:55:14;;;;;;;2.85;2.28;;;;;;;17.68;67.57;99927.25;5074833;28;20048;-64
2023/05/25 20:57:43;;;;;;;6.40;3.03;;;;;;;17.61;67.53;99928.31;5075073;28;20044;-63
2023/05/25 21:00:14;;;;;;;2.47;2.17;;;;;;;17.58;67.79;99933.53;5074897;28;20049;-64
2023/05/25 21:02:44;;;;;;;2.90;2.63;;;;;;;17.54;67.89;99926.78;5074719;28;20052;-63
2023/05/25 21:05:14;;;;;;;2.85;1.77;;;;;;;17.53;67.74;99925.06;5057081;28;20056;-63
2023/05/25 21:07:43;;;;;;;2.90;1.67;;;;;;;17.53;68.16;99930.22;5074943;28;20048;-63
2023/05/25 21:10:12;;;;;;;2.47;2.08;;;;;;;17.52;68.18;99936.25;5074057;28;20043;-65
2023/05/25 21:12:41;;;;;;;3.00;2.35;;;;;;;17.48;68.08;99925.16;5074810;28;20425;-65
2023/05/25 21:15:10;;;;;;;2.97;1.40;;;;;;;17.43;68.52;99930.41;5074705;28;20049;-65
2023/05/25 21:17:39;;;;;;;2.10;1.92;;;;;;;17.31;68.58;99928.13;5074646;28;20131;-64
2023/05/25 21:20:10;;;;;;;2.33;1.97;;;;;;;17.23;69.16;99927.47;5074335;28;20047;-63
2023/05/25 21:22:40;;;;;;;3.08;2.42;;;;;;;17.18;69.25;99937.03;5075145;28;20044;-63
2023/05/25 21:25:10;;;;;;;2.38;1.33;;;;;;;17.13;69.38;99935.47;5073947;28;20045;-63
2023/05/25 21:27:39;;;;;;;7.78;2.20;;;;;;;17.09;69.70;99929.53;5074902;28;20093;-64
2023/05/25 21:30:09;;;;;;;1.73;1.63;;;;;;;17.04;69.94;99931.34;5074335;28;20524;-64
2023/05/25 21:32:37;;;;;;;1.77;1.58;;;;;;;16.97;70.06;99934.09;5074511;28;20286;-63
2023/05/25 21:35:06;;;;;;;5.73;3.03;;;;;;;16.93;70.13;99937.66;5074323;28;20040;-63
2023/05/25 21:37:37;;;;;;;0.70;0.70;;;;;;;16.94;70.16;99939.34;5074039;28;20502;-64
2023/05/25 21:40:07;;;;;;;1.80;1.67;;;;;;;16.84;70.36;99943.88;5074103;28;20052;-65
2023/05/25 21:42:35;;;;;;;2.45;2.17;;;;;;;16.81;70.82;99943.06;5074297;28;20494;-65
2023/05/25 21:45:05;;;;;;;1.65;1.55;;;;;;;16.79;70.99;99940.53;5074232;28;20395;-64
2023/05/25 21:47:34;;;;;;;2.03;1.80;;;;;;;16.78;70.77;99938.81;5073940;28;20040;-64
2023/05/25 21:50:04;;;;;;;2.10;1.88;;;;;;;16.75;70.71;99949.19;5074143;28;20055;-62
2023/05/25 21:52:33;;;;;;;1.67;1.38;;;;;;;16.75;71.04;99955.22;5073839;28;20051;-62
2023/05/25 21:55:03;;;;;;;1.60;1.50;;;;;;;16.78;71.14;99954.28;5073850;28;20053;-63
2023/05/25 21:57:32;;;;;;;2.55;2.03;;;;;;;16.74;71.32;99952.66;5074108;28;20106;-64
2023/05/25 22:00:00;;;;;;;1.55;1.15;;;;;;;16.62;71.57;99947.78;5073818;28;20049;-65
2023/05/25 22:02:39;;;;;;;1.27;1.17;;;;;;;16.49;71.82;99956.59;5074095;28;20071;-62
2023/05/25 22:05:09;;;;;;;2.65;2.42;;;;;;;16.40;72.28;99961.94;5073990;28;20280;-63
2023/05/25 22:07:38;;;;;;;2.13;1.63;;;;;;;16.37;72.25;99956.84;5073620;28;20127;-63
2023/05/25 22:10:09;;;;;;;1.43;1.20;;;;;;;16.31;72.71;99952.66;5073573;28;20051;-64
2023/05/25 22:12:37;;;;;;;1.17;1.08;;;;;;;16.19;73.33;99946.91;5073520;28;20037;-64